createdAt,value
2022-09-17T00:01:06.840Z,3.78
2022-09-17T00:03:34.137Z,6.15
2022-09-17T00:06:01.760Z,4.18
2022-09-17T00:08:28.642Z,7.32
2022-09-17T00:10:55.185Z,5.07
2022-09-17T00:13:21.965Z,5.53
2022-09-17T00:15:50.500Z,6.75
2022-09-17T00:18:17.048Z,6.28
2022-09-17T00:20:45.464Z,6.85
2022-09-17T00:23:13.078Z,5.17
2022-09-17T00:25:40.706Z,4.78
2022-09-17T00:28:07.820Z,6.30
2022-09-17T00:30:34.581Z,3.72
2022-09-17T00:33:02.476Z,7.40
2022-09-17T00:35:29.787Z,5.97
2022-09-17T00:37:56.324Z,5.22
2022-09-17T00:40:26.123Z,6.78
2022-09-17T00:42:52.725Z,6.00
2022-09-17T00:45:20.064Z,6.13
2022-09-17T00:47:51.897Z,6.97
2022-09-17T00:50:23.563Z,7.25
2022-09-17T00:52:55.380Z,5.47
2022-09-17T00:55:25.490Z,9.65
2022-09-17T00:57:54.789Z,6.18
2022-09-17T01:00:21.953Z,7.93
2022-09-17T01:02:48.836Z,8.65
2022-09-17T01:05:16.546Z,7.55
2022-09-17T01:08:02.889Z,9.85
2022-09-17T01:11:07.769Z,9.73
2022-09-17T01:13:42.086Z,9.73
2022-09-17T01:16:16.291Z,8.77
2022-09-17T01:18:58.056Z,8.35
2022-09-17T01:21:46.694Z,7.35
2022-09-17T01:24:44.873Z,6.80
2022-09-17T01:27:31.391Z,8.17
2022-09-17T01:30:14.160Z,8.70
2022-09-17T01:32:46.964Z,8.35
2022-09-17T01:35:19.649Z,8.43
2022-09-17T01:37:54.162Z,9.68
2022-09-17T01:40:26.355Z,9.07
2022-09-17T01:42:59.286Z,10.40
2022-09-17T01:45:32.230Z,9.45
2022-09-17T01:48:03.958Z,8.57
2022-09-17T01:50:33.958Z,10.50
2022-09-17T01:53:03.433Z,8.73
2022-09-17T01:55:33.362Z,11.75
2022-09-17T01:58:04.352Z,8.40
2022-09-17T02:00:31.346Z,10.30
2022-09-17T02:03:03.410Z,10.57
2022-09-17T02:05:35.385Z,9.33
2022-09-17T02:08:06.592Z,8.90
2022-09-17T02:10:36.647Z,10.30
2022-09-17T02:13:08.083Z,10.55
2022-09-17T02:15:39.557Z,9.55
2022-09-17T02:18:15.237Z,8.63
2022-09-17T02:20:45.266Z,6.70
2022-09-17T02:23:16.617Z,8.40
2022-09-17T02:25:49.764Z,9.57
2022-09-17T02:28:22.322Z,8.48
2022-09-17T02:30:49.000Z,8.97
2022-09-17T02:33:19.021Z,11.88
2022-09-17T02:35:46.802Z,9.63
2022-09-17T02:38:13.544Z,7.72
2022-09-17T02:40:46.254Z,6.78
2022-09-17T02:43:19.680Z,11.93
2022-09-17T02:45:55.204Z,10.18
2022-09-17T02:48:49.753Z,7.40
2022-09-17T02:51:24.954Z,12.13
2022-09-17T02:54:00.892Z,8.45
2022-09-17T02:56:35.520Z,8.23
2022-09-17T02:59:11.741Z,9.00
2022-09-17T03:01:44.696Z,8.95
2022-09-17T03:04:16.899Z,9.32
2022-09-17T03:06:46.078Z,9.05
2022-09-17T03:09:13.624Z,8.47
2022-09-17T03:11:40.600Z,8.35
2022-09-17T03:14:07.148Z,8.00
2022-09-17T03:16:34.106Z,9.75
2022-09-17T03:19:00.675Z,8.57
2022-09-17T03:21:28.585Z,7.17
2022-09-17T03:23:55.150Z,7.50
2022-09-17T03:26:21.698Z,7.45
2022-09-17T03:28:48.209Z,7.00
2022-09-17T03:31:14.739Z,7.30
2022-09-17T03:33:41.313Z,8.90
2022-09-17T03:36:08.044Z,8.80
2022-09-17T03:38:35.945Z,7.82
2022-09-17T03:41:05.513Z,8.82
2022-09-17T03:43:32.032Z,10.48
2022-09-17T03:45:58.773Z,10.50
2022-09-17T03:48:25.315Z,9.93
2022-09-17T03:50:51.885Z,7.90
2022-09-17T03:53:18.481Z,6.57
2022-09-17T03:55:46.388Z,7.70
2022-09-17T03:58:12.908Z,7.97
2022-09-17T04:00:39.499Z,9.52
2022-09-17T04:03:06.216Z,7.88
2022-09-17T04:05:33.091Z,9.30
2022-09-17T04:07:59.676Z,6.78
2022-09-17T04:10:26.225Z,7.73
2022-09-17T04:12:54.092Z,8.18
2022-09-17T04:15:20.745Z,8.52
2022-09-17T04:17:47.303Z,6.97
2022-09-17T04:20:13.837Z,9.00
2022-09-17T04:22:40.385Z,9.87
2022-09-17T04:25:07.676Z,7.15
2022-09-17T04:27:34.232Z,9.70
2022-09-17T04:30:02.116Z,9.35
2022-09-17T04:32:28.785Z,11.32
2022-09-17T04:34:55.293Z,7.83
2022-09-17T04:37:22.488Z,9.43
2022-09-17T04:39:49.083Z,7.68
2022-09-17T04:42:15.956Z,7.38
2022-09-17T04:44:42.518Z,8.20
2022-09-17T04:47:10.441Z,7.90
2022-09-17T04:49:37.056Z,6.15
2022-09-17T04:52:03.667Z,9.25
2022-09-17T04:54:30.208Z,6.22
2022-09-17T04:56:56.916Z,6.65
2022-09-17T04:59:23.704Z,8.43
2022-09-17T05:01:50.330Z,7.22
2022-09-17T05:04:18.450Z,8.48
2022-09-17T05:06:45.093Z,9.75
2022-09-17T05:09:11.627Z,7.72
2022-09-17T05:11:38.223Z,5.10
2022-09-17T05:14:04.765Z,6.65
2022-09-17T05:16:31.481Z,7.38
2022-09-17T05:18:58.240Z,7.10
2022-09-17T05:21:26.380Z,5.22
2022-09-17T05:23:53.032Z,6.57
2022-09-17T05:26:19.582Z,6.10
2022-09-17T05:28:46.144Z,6.18
2022-09-17T05:31:12.764Z,4.03
2022-09-17T05:33:39.340Z,5.20
2022-09-17T05:36:06.364Z,6.93
2022-09-17T05:38:34.418Z,3.95
2022-09-17T05:41:04.255Z,3.95
2022-09-17T05:43:30.838Z,5.10
2022-09-17T05:46:01.272Z,2.25
2022-09-17T05:48:27.826Z,2.80
2022-09-17T05:50:54.756Z,3.35
2022-09-17T05:53:21.341Z,3.83
2022-09-17T05:55:49.265Z,4.45
2022-09-17T05:58:17.365Z,3.33
2022-09-17T06:00:45.902Z,4.83
2022-09-17T06:03:13.785Z,3.28
2022-09-17T06:05:40.430Z,5.47
2022-09-17T06:08:07.497Z,4.30
2022-09-17T06:10:36.313Z,4.38
2022-09-17T06:13:04.444Z,14.97
2022-09-17T06:15:31.201Z,3.63
2022-09-17T06:17:57.733Z,5.20
2022-09-17T06:20:25.077Z,6.63
2022-09-17T06:22:56.114Z,5.55
2022-09-17T06:25:22.625Z,4.53
2022-09-17T06:27:49.281Z,3.60
2022-09-17T06:30:17.221Z,3.80
2022-09-17T06:32:43.767Z,5.80
2022-09-17T06:35:10.312Z,6.20
2022-09-17T06:37:36.857Z,3.93
2022-09-17T06:40:03.646Z,4.25
2022-09-17T06:42:30.208Z,4.47
2022-09-17T06:44:58.841Z,5.07
2022-09-17T06:47:27.692Z,4.47
2022-09-17T06:49:54.202Z,4.60
2022-09-17T06:52:20.738Z,3.85
2022-09-17T06:54:47.273Z,5.13
2022-09-17T06:57:13.863Z,5.03
2022-09-17T06:59:40.418Z,6.90
2022-09-17T07:02:08.378Z,6.77
2022-09-17T07:04:36.375Z,5.82
2022-09-17T07:07:03.929Z,12.85
2022-09-17T07:09:30.485Z,4.70
2022-09-17T07:11:57.045Z,5.65
2022-09-17T07:14:25.034Z,5.63
2022-09-17T07:16:52.663Z,7.32
2022-09-17T07:19:19.223Z,7.32
2022-09-17T07:21:48.224Z,4.90
2022-09-17T07:24:14.755Z,6.93
2022-09-17T07:26:41.313Z,7.87
2022-09-17T07:29:07.873Z,6.68
2022-09-17T07:31:34.609Z,8.63
2022-09-17T07:34:01.231Z,7.70
2022-09-17T07:36:27.716Z,7.90
2022-09-17T07:38:55.580Z,7.67
2022-09-17T07:41:22.126Z,7.43
2022-09-17T07:43:48.702Z,9.32
2022-09-17T07:46:17.005Z,8.35
2022-09-17T07:48:43.788Z,8.48
2022-09-17T07:51:15.475Z,9.57
2022-09-17T07:53:42.024Z,8.98
2022-09-17T07:56:12.026Z,6.90
2022-09-17T07:58:38.912Z,7.28
2022-09-17T08:01:07.205Z,8.65
2022-09-17T08:03:34.189Z,8.13
2022-09-17T08:06:02.252Z,7.47
2022-09-17T08:08:29.429Z,9.63
2022-09-17T08:11:00.049Z,7.32
2022-09-17T08:13:28.188Z,9.95
2022-09-17T08:15:58.405Z,11.13
2022-09-17T08:18:24.990Z,7.75
2022-09-17T08:20:51.589Z,10.55
2022-09-17T08:23:18.140Z,8.57
2022-09-17T08:25:44.670Z,5.95
2022-09-17T08:28:11.173Z,5.17
2022-09-17T08:30:39.093Z,10.18
2022-09-17T08:33:05.633Z,13.27
2022-09-17T08:35:32.224Z,8.88
2022-09-17T08:37:58.921Z,8.85
2022-09-17T08:40:25.522Z,7.27
2022-09-17T08:42:55.535Z,6.97
2022-09-17T08:45:22.339Z,9.45
2022-09-17T08:47:50.378Z,6.82
2022-09-17T08:50:25.444Z,9.70
2022-09-17T08:53:13.179Z,7.37
2022-09-17T08:55:43.182Z,6.57
2022-09-17T08:58:39.732Z,11.95
2022-09-17T09:01:22.254Z,7.65
2022-09-17T09:04:20.184Z,10.70
2022-09-17T09:06:50.702Z,5.23
2022-09-17T09:09:19.909Z,7.32
2022-09-17T09:11:48.835Z,10.00
2022-09-17T09:14:21.732Z,6.45
2022-09-17T09:16:50.492Z,9.75
2022-09-17T09:19:23.511Z,8.53
2022-09-17T09:22:02.948Z,9.32
2022-09-17T09:24:39.408Z,8.23
2022-09-17T09:27:15.819Z,8.43
2022-09-17T09:29:50.189Z,8.13
2022-09-17T09:32:28.353Z,8.87
2022-09-17T09:35:03.454Z,10.70
2022-09-17T09:37:33.893Z,10.38
2022-09-17T09:40:07.489Z,11.10
2022-09-17T09:42:36.471Z,8.38
2022-09-17T09:45:13.579Z,7.00
2022-09-17T09:47:50.443Z,9.05
2022-09-17T09:51:04.703Z,12.95
2022-09-17T09:53:35.962Z,9.57
2022-09-17T09:56:16.330Z,12.00
2022-09-17T09:58:42.872Z,7.83
2022-09-17T10:01:14.491Z,7.43
2022-09-17T10:03:42.885Z,5.75
2022-09-17T10:06:11.995Z,8.57
2022-09-17T10:08:40.427Z,9.93
2022-09-17T10:11:20.516Z,7.93
2022-09-17T10:13:47.287Z,7.70
2022-09-17T10:16:19.040Z,8.25
2022-09-17T10:18:46.683Z,8.82
2022-09-17T10:21:21.911Z,9.70
2022-09-17T10:23:49.541Z,7.90
2022-09-17T10:26:25.346Z,7.20
2022-09-17T10:28:54.543Z,9.75
2022-09-17T10:31:21.862Z,8.23
2022-09-17T10:33:55.981Z,10.38
2022-09-17T10:36:43.925Z,7.33
2022-09-17T10:39:29.416Z,7.90
2022-09-17T10:41:57.379Z,7.85
2022-09-17T10:44:25.456Z,8.48
2022-09-17T10:46:52.579Z,8.70
2022-09-17T10:49:30.616Z,8.37
2022-09-17T10:52:07.246Z,9.32
2022-09-17T10:54:51.865Z,9.15
2022-09-17T10:57:26.674Z,10.10
2022-09-17T11:00:08.486Z,5.88
2022-09-17T11:03:08.574Z,7.70
2022-09-17T11:05:46.282Z,6.32
2022-09-17T11:08:19.972Z,7.68
2022-09-17T11:10:53.054Z,4.38
2022-09-17T11:13:28.214Z,6.63
2022-09-17T11:16:11.440Z,6.47
2022-09-17T11:18:42.353Z,5.68
2022-09-17T11:21:33.721Z,11.05
2022-09-17T11:24:21.175Z,8.05
2022-09-17T11:26:57.119Z,5.85
2022-09-17T11:29:40.444Z,5.73
2022-09-17T11:32:16.585Z,6.95
2022-09-17T11:34:48.469Z,6.32
2022-09-17T11:37:22.361Z,7.72
2022-09-17T11:39:55.325Z,7.40
2022-09-17T11:42:26.193Z,5.73
2022-09-17T11:44:56.932Z,4.03
2022-09-17T11:47:29.410Z,5.65
2022-09-17T11:50:00.888Z,4.18
2022-09-17T11:52:33.958Z,7.65
2022-09-17T11:55:09.698Z,6.93
2022-09-17T11:57:40.115Z,3.38
2022-09-17T12:00:13.933Z,6.70
2022-09-17T12:02:48.683Z,5.25
2022-09-17T12:05:19.755Z,5.38
2022-09-17T12:07:53.053Z,5.67
2022-09-17T12:10:39.325Z,5.45
2022-09-17T12:13:18.344Z,4.70
2022-09-17T12:15:53.072Z,9.23
2022-09-17T12:18:32.891Z,7.57
2022-09-17T12:21:02.653Z,5.87
2022-09-17T12:23:36.876Z,6.43
2022-09-17T12:26:14.112Z,4.80
2022-09-17T12:28:49.290Z,8.68
2022-09-17T12:31:25.794Z,5.95
2022-09-17T12:33:55.234Z,5.17
2022-09-17T12:36:37.704Z,5.28
2022-09-17T12:39:31.454Z,3.63
2022-09-17T12:42:11.343Z,4.07
2022-09-17T12:44:51.254Z,7.63
2022-09-17T12:47:37.558Z,4.63
2022-09-17T12:50:16.739Z,6.18
2022-09-17T12:52:55.064Z,6.55
2022-09-17T12:55:37.948Z,6.05
2022-09-17T12:58:17.638Z,11.30
2022-09-17T13:00:48.902Z,11.30
2022-09-17T13:03:22.477Z,7.75
2022-09-17T13:06:13.149Z,7.07
2022-09-17T13:09:10.307Z,7.00
2022-09-17T13:12:03.500Z,4.45
2022-09-17T13:14:48.156Z,8.33
2022-09-17T13:17:23.109Z,9.68
2022-09-17T13:20:00.009Z,30.85
2022-09-17T13:22:30.258Z,20.98
2022-09-17T13:25:04.934Z,9.82
2022-09-17T13:27:32.225Z,8.47
2022-09-17T13:30:04.608Z,5.90
2022-09-17T13:32:44.911Z,5.07
2022-09-17T13:35:49.070Z,7.47
2022-09-17T13:38:20.173Z,13.15
2022-09-17T13:40:49.839Z,11.17
2022-09-17T13:43:19.743Z,7.20
2022-09-17T13:46:09.741Z,6.53
2022-09-17T13:48:43.337Z,10.25
2022-09-17T13:51:43.308Z,7.68
2022-09-17T13:54:10.995Z,7.17
2022-09-17T13:56:39.561Z,7.35
2022-09-17T13:59:08.094Z,6.72
2022-09-17T14:02:00.896Z,7.88
2022-09-17T14:04:45.254Z,7.57
2022-09-17T14:07:35.608Z,7.33
2022-09-17T14:10:33.692Z,7.80
2022-09-17T14:13:40.911Z,10.43
2022-09-17T14:16:30.958Z,9.88
2022-09-17T14:19:02.430Z,10.07
2022-09-17T14:21:33.687Z,8.40
2022-09-17T14:24:02.807Z,10.27
2022-09-17T14:26:44.687Z,9.68
2022-09-17T14:29:24.990Z,11.30
2022-09-17T14:31:51.553Z,11.95
2022-09-17T14:34:22.211Z,12.40
2022-09-17T14:36:50.355Z,8.35
2022-09-17T14:39:21.617Z,10.65
2022-09-17T14:41:50.273Z,6.28
2022-09-17T14:44:20.190Z,5.35
2022-09-17T14:46:54.208Z,5.00
2022-09-17T14:49:23.638Z,4.10
2022-09-17T14:51:51.223Z,4.97
2022-09-17T14:54:23.293Z,3.63
2022-09-17T14:56:53.491Z,8.23
2022-09-17T14:59:25.540Z,6.73
2022-09-17T15:01:52.410Z,3.75
2022-09-17T15:04:24.932Z,6.53
2022-09-17T15:06:52.008Z,3.53
2022-09-17T15:09:22.041Z,3.28
2022-09-17T15:11:49.113Z,5.97
2022-09-17T15:14:19.476Z,4.63
2022-09-17T15:16:49.494Z,8.57
2022-09-17T15:19:22.226Z,8.65
2022-09-17T15:21:52.644Z,5.55
2022-09-17T15:24:34.033Z,6.77
2022-09-17T15:27:12.316Z,5.85
2022-09-17T15:29:43.351Z,6.00
2022-09-17T15:32:12.217Z,20.05
2022-09-17T15:34:38.808Z,5.50
2022-09-17T15:37:17.037Z,4.83
2022-09-17T15:39:48.168Z,7.90
2022-09-17T15:42:19.116Z,4.05
2022-09-17T15:44:45.773Z,3.63
2022-09-17T15:47:34.717Z,4.38
2022-09-17T15:50:12.415Z,5.13
2022-09-17T15:52:40.379Z,4.43
2022-09-17T15:55:35.871Z,2.88
2022-09-17T15:58:05.738Z,5.30
2022-09-17T16:00:32.671Z,6.00
2022-09-17T16:03:40.106Z,4.90
2022-09-17T16:06:38.551Z,4.85
2022-09-17T16:09:40.359Z,3.42
2022-09-17T16:12:07.632Z,4.40
2022-09-17T16:14:34.212Z,7.78
2022-09-17T16:17:09.705Z,2.93
2022-09-17T16:19:36.280Z,2.15
2022-09-17T16:22:02.914Z,1.45
2022-09-17T16:24:30.797Z,4.53
2022-09-17T16:26:57.485Z,2.75
2022-09-17T16:29:24.052Z,3.50
2022-09-17T16:31:51.797Z,3.38
2022-09-17T16:34:18.401Z,3.58
2022-09-17T16:36:44.981Z,5.07
2022-09-17T16:39:11.650Z,4.35
2022-09-17T16:41:39.537Z,3.17
2022-09-17T16:44:06.126Z,4.78
2022-09-17T16:46:32.827Z,3.10
2022-09-17T16:48:59.431Z,3.97
2022-09-17T16:51:25.950Z,2.40
2022-09-17T16:53:52.522Z,3.23
2022-09-17T16:56:19.210Z,3.65
2022-09-17T16:58:47.133Z,4.63
2022-09-17T17:01:15.416Z,6.32
2022-09-17T17:03:42.573Z,4.35
2022-09-17T17:06:15.358Z,3.73
2022-09-17T17:08:41.890Z,3.65
2022-09-17T17:11:08.471Z,2.78
2022-09-17T17:13:35.047Z,3.15
2022-09-17T17:16:06.903Z,1.58
2022-09-17T17:18:33.492Z,1.90
2022-09-17T17:21:04.789Z,4.72
2022-09-17T17:23:31.345Z,5.82
2022-09-17T17:25:57.864Z,3.33
2022-09-17T17:28:24.456Z,2.72
2022-09-17T17:30:51.094Z,5.07
2022-09-17T17:33:18.998Z,5.25
2022-09-17T17:35:45.546Z,5.07
2022-09-17T17:38:12.122Z,5.88
2022-09-17T17:40:38.694Z,3.28
2022-09-17T17:43:05.315Z,3.60
2022-09-17T17:45:31.841Z,5.45
2022-09-17T17:47:58.373Z,3.38
2022-09-17T17:50:26.255Z,3.72
2022-09-17T17:52:54.147Z,2.40
2022-09-17T17:55:21.003Z,4.37
2022-09-17T17:57:47.524Z,4.57
2022-09-17T18:00:14.547Z,3.92
2022-09-17T18:02:41.269Z,5.32
2022-09-17T18:05:08.533Z,5.03
2022-09-17T18:07:36.468Z,5.07
2022-09-17T18:10:03.467Z,4.32
2022-09-17T18:12:29.994Z,4.55
2022-09-17T18:14:56.550Z,3.85
2022-09-17T18:17:23.096Z,3.08
2022-09-17T18:19:49.717Z,6.27
2022-09-17T18:22:16.295Z,4.55
2022-09-17T18:24:44.206Z,6.25
2022-09-17T18:27:10.746Z,5.70
2022-09-17T18:29:37.269Z,8.23
2022-09-17T18:32:04.007Z,8.23
2022-09-17T18:34:30.823Z,9.13
2022-09-17T18:36:57.424Z,7.28
2022-09-17T18:42:12.472Z,6.72
2022-09-17T18:44:39.025Z,9.90
2022-09-17T18:47:05.834Z,6.53
2022-09-17T18:49:32.469Z,7.63
2022-09-17T18:51:59.034Z,7.38
2022-09-17T18:54:25.696Z,4.95
2022-09-17T18:56:52.254Z,5.30
2022-09-17T18:59:20.106Z,5.63
2022-09-17T19:01:46.703Z,6.47
2022-09-17T19:04:13.275Z,3.78
2022-09-17T19:06:39.846Z,3.00
2022-09-17T19:09:06.571Z,3.60
2022-09-17T19:11:34.531Z,6.65
2022-09-17T19:14:01.125Z,4.65
2022-09-17T19:16:29.088Z,3.00
2022-09-17T19:18:55.846Z,3.90
2022-09-17T19:21:22.417Z,5.37
2022-09-17T19:23:51.555Z,5.32
2022-09-17T19:26:20.001Z,6.00
2022-09-17T19:28:46.864Z,6.50
2022-09-17T19:31:15.356Z,4.55
2022-09-17T19:33:44.121Z,7.37
2022-09-17T19:36:11.910Z,4.07
2022-09-17T19:38:38.604Z,5.53
2022-09-17T19:41:07.524Z,4.95
2022-09-17T19:43:34.060Z,3.65
2022-09-17T19:46:01.733Z,3.37
2022-09-17T19:48:28.989Z,6.93
2022-09-17T19:50:57.212Z,3.67
2022-09-17T19:53:24.280Z,4.78
2022-09-17T19:55:50.862Z,4.35
2022-09-17T19:58:17.432Z,4.83
2022-09-17T20:00:44.025Z,3.22
2022-09-17T20:03:10.726Z,3.17
2022-09-17T20:05:37.408Z,4.60
2022-09-17T20:08:05.455Z,3.25
2022-09-17T20:10:34.398Z,4.97
2022-09-17T20:13:00.937Z,4.43
2022-09-17T20:15:27.551Z,5.93
2022-09-17T20:17:54.105Z,3.65
2022-09-17T20:20:20.723Z,4.28
2022-09-17T20:22:47.288Z,3.23
2022-09-17T20:25:15.394Z,4.78
2022-09-17T20:27:41.939Z,6.95
2022-09-17T20:30:09.489Z,7.35
2022-09-17T20:32:36.070Z,6.55
2022-09-17T20:35:02.628Z,8.03
2022-09-17T20:38:12.321Z,5.18
2022-09-17T20:40:17.209Z,3.58
2022-09-17T20:42:43.792Z,3.25
2022-09-17T20:45:10.596Z,4.22
2022-09-17T20:47:37.124Z,3.37
2022-09-17T20:50:03.946Z,2.88
2022-09-17T20:52:30.480Z,5.22
2022-09-17T20:54:57.011Z,5.75
2022-09-17T20:57:24.934Z,4.45
2022-09-17T20:59:51.481Z,4.17
2022-09-17T21:02:19.128Z,3.20
2022-09-17T21:04:45.714Z,6.28
2022-09-17T21:07:12.409Z,3.42
2022-09-17T21:09:38.950Z,3.65
2022-09-17T21:12:06.047Z,3.30
2022-09-17T21:14:34.046Z,4.25
2022-09-17T21:17:00.640Z,4.68
2022-09-17T21:19:27.220Z,3.60
2022-09-17T21:21:53.741Z,2.42
2022-09-17T21:24:21.268Z,3.43
2022-09-17T21:26:47.997Z,2.58
2022-09-17T21:29:14.602Z,3.83
2022-09-17T21:31:42.820Z,2.75
2022-09-17T21:34:11.663Z,2.97
2022-09-17T21:36:39.923Z,2.03
2022-09-17T21:39:09.970Z,1.98
2022-09-17T21:41:41.436Z,2.70
2022-09-17T21:44:09.448Z,2.35
2022-09-17T21:46:36.636Z,2.78
2022-09-17T21:49:05.668Z,3.40
2022-09-17T21:51:34.100Z,2.45
2022-09-17T21:54:02.671Z,3.83
2022-09-17T21:56:30.469Z,3.05
2022-09-17T21:58:58.584Z,5.20
2022-09-17T22:01:27.270Z,3.03
2022-09-17T22:03:55.540Z,2.15
2022-09-17T22:06:25.388Z,3.72
2022-09-17T22:08:52.073Z,3.00
2022-09-17T22:11:21.381Z,5.20
2022-09-17T22:13:52.486Z,4.07
2022-09-17T22:16:19.076Z,2.50
2022-09-17T22:18:47.589Z,3.70
2022-09-17T22:21:16.307Z,3.97
2022-09-17T22:23:45.231Z,4.22
2022-09-17T22:26:11.803Z,6.37
2022-09-17T22:28:38.437Z,3.88
2022-09-17T22:31:07.055Z,3.40
2022-09-17T22:33:34.107Z,5.65
2022-09-17T22:36:05.379Z,4.82
2022-09-17T22:38:32.310Z,2.80
2022-09-17T22:41:05.410Z,4.63
2022-09-17T22:43:32.458Z,2.92
2022-09-17T22:45:59.199Z,1.67
2022-09-17T22:48:26.021Z,2.25
2022-09-17T22:50:52.848Z,4.17
2022-09-17T22:53:19.601Z,5.20
2022-09-17T22:55:53.704Z,4.18
2022-09-17T22:58:21.886Z,2.22
2022-09-17T23:00:48.447Z,2.90
2022-09-17T23:03:14.954Z,2.60
2022-09-17T23:05:41.517Z,3.83
2022-09-17T23:08:08.086Z,4.40
2022-09-17T23:10:35.374Z,4.55
2022-09-17T23:13:01.921Z,2.45
2022-09-17T23:15:31.901Z,3.97
2022-09-17T23:17:58.434Z,7.03
2022-09-17T23:20:25.001Z,5.38
2022-09-17T23:22:51.648Z,3.85
2022-09-17T23:25:18.836Z,2.47
2022-09-17T23:27:45.397Z,5.60
2022-09-17T23:30:12.180Z,3.72
2022-09-17T23:32:40.045Z,5.30
2022-09-17T23:35:07.445Z,3.20
2022-09-17T23:37:34.035Z,4.35
2022-09-17T23:40:00.858Z,4.47
2022-09-17T23:42:27.482Z,4.40
2022-09-17T23:44:54.003Z,5.68
2022-09-17T23:47:20.527Z,5.68
2022-09-17T23:49:48.439Z,5.68
2022-09-17T23:52:15.128Z,4.33
2022-09-17T23:54:41.689Z,7.40
2022-09-17T23:57:08.244Z,6.20
2022-09-17T23:59:34.789Z,6.30
